Aviation Digital Data Service (ADDS)

Output produced by METARs form (1633 UTC 22 July 2017)
found at http://www.aviationweather.gov/adds/metars/
 
KDEN 221510Z 2215/2318 18006KT P6SM FEW120 SCT150 BKN220 
     FM221700 06007KT P6SM SCT080 SCT120 BKN220 
     FM222300 10007KT P6SM FEW080 BKN140 
     FM230300 14009KT P6SM FEW140 SCT220 
     FM230600 20010KT P6SM FEW120 SCT200